createdAt,value
2022-08-23T00:00:13.848Z,57.50
2022-08-23T00:02:43.601Z,57.20
2022-08-23T00:05:13.036Z,57.40
2022-08-23T00:07:46.162Z,57.70
2022-08-23T00:10:17.676Z,56.50
2022-08-23T00:12:48.967Z,56.00
2022-08-23T00:15:20.808Z,56.50
2022-08-23T00:17:50.352Z,56.20
2022-08-23T00:20:20.168Z,55.90
2022-08-23T00:22:48.611Z,55.70
2022-08-23T00:25:17.303Z,55.30
2022-08-23T00:27:46.670Z,55.00
2022-08-23T00:30:16.527Z,54.90
2022-08-23T00:32:45.560Z,55.10
2022-08-23T00:35:26.421Z,54.80
2022-08-23T00:38:14.655Z,54.40
2022-08-23T00:40:45.949Z,55.20
2022-08-23T00:43:35.571Z,54.40
2022-08-23T00:46:28.057Z,54.40
2022-08-23T00:48:56.980Z,54.20
2022-08-23T00:51:28.668Z,54.10
2022-08-23T00:54:01.577Z,54.10
2022-08-23T00:56:32.232Z,54.10
2022-08-23T00:59:02.203Z,54.00
2022-08-23T01:01:30.473Z,53.80
2022-08-23T01:04:04.826Z,54.00
2022-08-23T01:06:38.096Z,53.70
2022-08-23T01:09:10.064Z,53.70
2022-08-23T01:11:41.845Z,53.50
2022-08-23T01:14:16.471Z,53.10
2022-08-23T01:16:48.576Z,53.30
2022-08-23T01:19:24.052Z,53.10
2022-08-23T01:21:58.600Z,53.10
2022-08-23T01:25:06.441Z,53.10
2022-08-23T01:27:17.849Z,53.10
2022-08-23T01:29:45.972Z,53.10
2022-08-23T01:32:14.858Z,53.10
2022-08-23T01:34:45.793Z,53.30
2022-08-23T01:37:21.717Z,53.50
2022-08-23T01:39:52.776Z,53.70
2022-08-23T01:42:21.127Z,53.50
2022-08-23T01:44:49.136Z,53.50
2022-08-23T01:47:19.252Z,53.60
2022-08-23T01:49:47.660Z,53.50
2022-08-23T01:52:17.172Z,53.50
2022-08-23T01:54:45.372Z,53.50
2022-08-23T01:57:14.875Z,53.30
2022-08-23T01:59:44.534Z,53.20
2022-08-23T02:02:14.947Z,53.10
2022-08-23T02:04:43.163Z,53.10
2022-08-23T02:07:11.173Z,53.10
2022-08-23T02:09:39.481Z,53.30
2022-08-23T02:12:08.701Z,53.40
2022-08-23T02:14:41.976Z,53.70
2022-08-23T02:17:18.525Z,53.60
2022-08-23T02:19:47.517Z,53.60
2022-08-23T02:22:15.662Z,53.40
2022-08-23T02:24:45.801Z,53.50
2022-08-23T02:27:16.245Z,53.60
2022-08-23T02:29:48.087Z,53.50
2022-08-23T02:32:20.261Z,53.80
2022-08-23T02:35:04.556Z,53.90
2022-08-23T02:37:34.150Z,53.70
2022-08-23T02:40:02.307Z,53.80
2022-08-23T02:42:30.848Z,54.40
2022-08-23T02:45:01.054Z,54.10
2022-08-23T02:47:29.223Z,54.00
2022-08-23T02:50:10.948Z,54.50
2022-08-23T02:52:39.058Z,53.90
2022-08-23T02:55:08.529Z,53.90
2022-08-23T02:57:36.688Z,54.00
2022-08-23T03:00:08.972Z,54.20
2022-08-23T03:02:37.876Z,53.80
2022-08-23T03:05:06.739Z,54.00
2022-08-23T03:07:36.470Z,53.60
2022-08-23T03:10:05.668Z,53.40
2022-08-23T03:12:36.564Z,53.60
2022-08-23T03:15:07.692Z,53.60
2022-08-23T03:17:36.161Z,53.90
2022-08-23T03:20:09.488Z,53.60
2022-08-23T03:22:37.710Z,53.70
2022-08-23T03:25:07.294Z,53.60
2022-08-23T03:27:51.024Z,54.20
2022-08-23T03:30:21.166Z,53.50
2022-08-23T03:32:57.666Z,53.50
2022-08-23T03:35:25.769Z,53.70
2022-08-23T03:37:55.320Z,53.70
2022-08-23T03:40:24.894Z,54.40
2022-08-23T03:42:53.431Z,53.40
2022-08-23T03:45:26.440Z,53.60
2022-08-23T03:47:54.592Z,53.40
2022-08-23T03:50:22.847Z,53.50
2022-08-23T03:52:51.829Z,53.40
2022-08-23T03:55:20.107Z,53.40
2022-08-23T03:57:50.393Z,53.80
2022-08-23T04:00:22.574Z,53.80
2022-08-23T04:02:54.747Z,53.90
2022-08-23T04:05:24.920Z,54.00
2022-08-23T04:08:19.606Z,54.70
2022-08-23T04:11:01.762Z,53.90
2022-08-23T04:13:30.407Z,54.30
2022-08-23T04:16:03.328Z,54.10
2022-08-23T04:18:35.081Z,54.00
2022-08-23T04:21:07.032Z,54.10
2022-08-23T04:23:35.389Z,53.80
2022-08-23T04:26:03.575Z,54.00
2022-08-23T04:28:34.633Z,53.90
2022-08-23T04:31:04.723Z,54.00
2022-08-23T04:33:35.626Z,54.00
2022-08-23T04:36:08.928Z,54.30
2022-08-23T04:38:37.035Z,54.80
2022-08-23T04:41:25.124Z,55.60
2022-08-23T04:43:56.283Z,55.80
2022-08-23T04:46:25.836Z,55.40
2022-08-23T04:48:57.408Z,55.00
2022-08-23T04:51:25.407Z,54.90
2022-08-23T04:53:56.898Z,54.70
2022-08-23T04:56:42.859Z,55.00
2022-08-23T04:59:13.936Z,55.30
2022-08-23T05:01:45.580Z,55.50
2022-08-23T05:04:16.369Z,55.00
2022-08-23T05:06:45.237Z,55.30
2022-08-23T05:09:17.123Z,54.80
2022-08-23T05:11:48.381Z,54.60
2022-08-23T05:14:16.613Z,54.90
2022-08-23T05:16:44.738Z,54.30
2022-08-23T05:19:14.926Z,54.30
2022-08-23T05:21:48.694Z,54.80
2022-08-23T05:24:17.397Z,54.80
2022-08-23T05:26:47.834Z,55.10
2022-08-23T05:29:16.376Z,55.00
2022-08-23T05:31:49.893Z,54.70
2022-08-23T05:34:25.996Z,54.80
2022-08-23T05:36:58.514Z,54.50
2022-08-23T05:39:36.708Z,55.40
2022-08-23T05:42:13.111Z,54.90
2022-08-23T05:44:42.377Z,55.70
2022-08-23T05:47:15.099Z,54.80
2022-08-23T05:49:58.743Z,55.10
2022-08-23T05:52:28.876Z,54.90
2022-08-23T05:54:56.966Z,55.30
2022-08-23T05:57:46.431Z,54.80
2022-08-23T06:00:16.136Z,54.30
2022-08-23T06:02:47.287Z,55.00
2022-08-23T06:05:18.099Z,54.50
2022-08-23T06:07:49.375Z,54.80
2022-08-23T06:10:20.750Z,54.80
2022-08-23T06:12:55.740Z,54.70
2022-08-23T06:15:23.904Z,54.80
2022-08-23T06:17:52.487Z,55.30
2022-08-23T06:20:22.173Z,55.40
2022-08-23T06:23:02.030Z,55.50
2022-08-23T06:25:30.460Z,55.30
2022-08-23T06:28:13.398Z,55.20
2022-08-23T06:30:45.760Z,55.00
2022-08-23T06:33:37.990Z,54.90
2022-08-23T06:36:37.599Z,54.20
2022-08-23T06:39:16.462Z,54.70
2022-08-23T06:42:13.234Z,54.30
2022-08-23T06:44:50.828Z,54.60
2022-08-23T06:47:28.500Z,54.40
2022-08-23T06:49:58.746Z,54.80
2022-08-23T06:52:49.293Z,54.70
2022-08-23T06:55:36.123Z,55.40
2022-08-23T06:58:23.359Z,55.90
2022-08-23T07:01:28.587Z,56.30
2022-08-23T07:04:06.964Z,56.00
2022-08-23T07:06:53.566Z,55.70
2022-08-23T07:09:23.592Z,55.80
2022-08-23T07:11:52.690Z,55.30
2022-08-23T07:14:22.599Z,55.60
2022-08-23T07:16:52.515Z,56.40
2022-08-23T07:19:25.745Z,55.90
2022-08-23T07:21:57.809Z,55.40
2022-08-23T07:24:32.290Z,55.60
2022-08-23T07:27:03.927Z,55.40
2022-08-23T07:29:32.729Z,56.00
2022-08-23T07:32:00.924Z,55.90
2022-08-23T07:34:30.064Z,55.60
2022-08-23T07:36:58.281Z,55.50
2022-08-23T07:39:28.009Z,55.60
2022-08-23T07:41:56.625Z,56.20
2022-08-23T07:44:27.230Z,55.20
2022-08-23T07:46:56.047Z,55.50
2022-08-23T07:49:29.375Z,55.10
2022-08-23T07:51:59.849Z,55.00
2022-08-23T07:54:29.493Z,54.90
2022-08-23T07:57:13.582Z,54.60
2022-08-23T07:59:56.649Z,54.60
2022-08-23T08:02:40.550Z,54.20
2022-08-23T08:05:21.442Z,53.50
2022-08-23T08:07:50.337Z,54.10
2022-08-23T08:10:20.804Z,54.10
2022-08-23T08:12:50.840Z,53.50
2022-08-23T08:15:21.863Z,53.10
2022-08-23T08:17:57.414Z,52.80
2022-08-23T08:20:44.770Z,52.60
2022-08-23T08:23:29.233Z,52.80
2022-08-23T08:26:23.091Z,53.20
2022-08-23T08:28:57.742Z,53.40
2022-08-23T08:31:27.615Z,52.60
2022-08-23T08:33:56.660Z,52.60
2022-08-23T08:36:35.175Z,52.40
2022-08-23T08:39:07.432Z,52.40
2022-08-23T08:42:04.320Z,52.00
2022-08-23T08:44:39.914Z,52.80
2022-08-23T08:47:15.091Z,53.40
2022-08-23T08:49:48.468Z,53.40
2022-08-23T08:52:21.593Z,53.20
2022-08-23T08:54:55.752Z,53.00
2022-08-23T08:57:27.472Z,52.60
2022-08-23T09:00:01.681Z,51.80
2022-08-23T09:02:35.181Z,51.80
2022-08-23T09:05:14.553Z,52.20
2022-08-23T09:07:53.556Z,51.20
2022-08-23T09:11:00.665Z,50.20
2022-08-23T09:14:03.154Z,50.90
2022-08-23T09:16:44.931Z,49.70
2022-08-23T09:19:14.408Z,50.80
2022-08-23T09:21:49.334Z,50.90
2022-08-23T09:24:17.722Z,51.40
2022-08-23T09:26:56.282Z,51.40
2022-08-23T09:29:28.755Z,51.00
2022-08-23T09:32:02.138Z,50.70
2022-08-23T09:34:45.053Z,51.00
2022-08-23T09:37:22.235Z,49.60
2022-08-23T09:39:54.101Z,50.70
2022-08-23T09:42:32.783Z,52.00
2022-08-23T09:45:02.819Z,51.90
2022-08-23T09:47:44.628Z,50.90
2022-08-23T09:50:26.631Z,50.90
2022-08-23T09:53:04.752Z,51.40
2022-08-23T09:55:36.315Z,52.10
2022-08-23T09:58:08.229Z,51.50
2022-08-23T10:00:38.658Z,51.40
2022-08-23T10:03:24.530Z,50.80
2022-08-23T10:05:58.327Z,51.40
2022-08-23T10:08:34.132Z,51.00
2022-08-23T10:11:15.935Z,50.90
2022-08-23T10:13:45.006Z,50.90
2022-08-23T10:16:24.934Z,50.50
2022-08-23T10:19:20.366Z,51.90
2022-08-23T10:21:58.818Z,52.20
2022-08-23T10:24:41.366Z,52.20
2022-08-23T10:27:37.288Z,52.00
2022-08-23T10:30:11.748Z,52.70
2022-08-23T10:33:01.198Z,51.80
2022-08-23T10:35:36.062Z,49.90
2022-08-23T10:38:17.697Z,51.00
2022-08-23T10:40:56.957Z,50.60
2022-08-23T10:43:37.566Z,50.00
2022-08-23T10:46:08.385Z,50.40
2022-08-23T10:48:48.995Z,50.80
2022-08-23T10:51:31.345Z,49.90
2022-08-23T10:54:07.498Z,48.20
2022-08-23T10:56:38.014Z,49.90
2022-08-23T10:59:14.270Z,48.40
2022-08-23T11:01:48.564Z,49.30
2022-08-23T11:04:28.155Z,48.70
2022-08-23T11:07:18.054Z,49.20
2022-08-23T11:09:51.791Z,48.80
2022-08-23T11:12:27.727Z,49.80
2022-08-23T11:15:22.962Z,48.90
2022-08-23T11:17:58.183Z,49.00
2022-08-23T11:21:00.021Z,48.40
2022-08-23T11:23:49.696Z,49.50
2022-08-23T11:27:07.630Z,48.80
2022-08-23T11:29:43.940Z,47.90
2022-08-23T11:32:42.127Z,48.10
2022-08-23T11:35:32.929Z,48.20
2022-08-23T11:38:05.918Z,47.50
2022-08-23T11:41:00.963Z,46.80
2022-08-23T11:43:38.111Z,47.10
2022-08-23T11:46:34.519Z,49.70
2022-08-23T11:49:41.005Z,47.40
2022-08-23T11:52:20.167Z,47.50
2022-08-23T11:55:05.248Z,47.90
2022-08-23T11:57:53.066Z,47.40
2022-08-23T12:00:29.303Z,48.00
2022-08-23T12:03:03.822Z,48.20
2022-08-23T12:06:05.452Z,48.40
2022-08-23T12:08:51.097Z,47.70
2022-08-23T12:11:20.986Z,48.60
2022-08-23T12:14:01.929Z,48.00
2022-08-23T12:16:36.378Z,48.10
2022-08-23T12:19:10.918Z,48.10
2022-08-23T12:21:46.449Z,47.90
2022-08-23T12:24:19.409Z,46.30
2022-08-23T12:26:59.083Z,45.00
2022-08-23T12:29:43.609Z,46.80
2022-08-23T12:32:19.591Z,46.10
2022-08-23T12:34:57.375Z,47.30
2022-08-23T12:37:35.752Z,47.40
2022-08-23T12:40:09.142Z,46.60
2022-08-23T12:42:41.151Z,46.20
2022-08-23T12:45:15.442Z,46.10
2022-08-23T12:47:55.583Z,47.80
2022-08-23T12:50:32.718Z,48.90
2022-08-23T12:53:07.093Z,49.10
2022-08-23T12:55:37.690Z,49.40
2022-08-23T12:58:08.354Z,49.60
2022-08-23T13:00:42.462Z,50.40
2022-08-23T13:03:18.802Z,48.80
2022-08-23T13:05:52.797Z,49.20
2022-08-23T13:08:34.338Z,49.50
2022-08-23T13:11:08.651Z,48.90
2022-08-23T13:13:40.187Z,49.50
2022-08-23T13:16:27.124Z,49.40
2022-08-23T13:18:56.814Z,49.10
2022-08-23T13:21:39.534Z,49.00
2022-08-23T13:24:38.160Z,49.40
2022-08-23T13:27:18.321Z,49.20
2022-08-23T13:29:56.523Z,49.40
2022-08-23T13:32:34.627Z,49.00
2022-08-23T13:35:32.123Z,49.20
2022-08-23T13:38:11.654Z,48.20
2022-08-23T13:40:43.691Z,49.30
2022-08-23T13:43:16.155Z,49.80
2022-08-23T13:45:51.553Z,49.40
2022-08-23T13:48:22.266Z,50.30
2022-08-23T13:50:54.013Z,47.90
2022-08-23T13:53:23.743Z,47.80
2022-08-23T13:55:55.537Z,47.60
2022-08-23T13:58:29.939Z,47.60
2022-08-23T14:01:01.280Z,47.10
2022-08-23T14:03:31.755Z,47.10
2022-08-23T14:05:59.910Z,48.10
2022-08-23T14:08:28.024Z,48.10
2022-08-23T14:10:56.063Z,48.20
2022-08-23T14:13:30.637Z,47.80
2022-08-23T14:21:45.214Z,48.10
2022-08-23T14:24:13.725Z,47.30
2022-08-23T14:26:50.034Z,46.60
2022-08-23T14:29:22.283Z,48.20
2022-08-23T14:31:53.115Z,48.20
2022-08-23T14:34:21.879Z,47.00
2022-08-23T14:39:39.550Z,47.50
2022-08-23T14:42:10.701Z,46.20
2022-08-23T14:44:39.874Z,47.00
2022-08-23T14:47:09.316Z,47.50
2022-08-23T14:49:38.613Z,47.60
2022-08-23T14:52:07.032Z,47.20
2022-08-23T14:54:37.395Z,47.80
2022-08-23T14:57:06.678Z,48.50
2022-08-23T14:59:34.764Z,48.10
2022-08-23T15:02:04.144Z,48.50
2022-08-23T15:04:35.996Z,49.30
2022-08-23T15:07:20.703Z,48.10
2022-08-23T15:09:49.609Z,48.10
2022-08-23T15:15:09.037Z,48.30
2022-08-23T15:17:48.386Z,48.10
2022-08-23T15:20:18.345Z,48.30
2022-08-23T15:22:55.088Z,48.50
2022-08-23T15:25:24.808Z,48.60
2022-08-23T15:27:54.584Z,47.70
2022-08-23T15:30:23.955Z,47.70
2022-08-23T15:33:03.683Z,47.10
2022-08-23T15:35:37.975Z,47.80
2022-08-23T15:38:08.869Z,47.90
2022-08-23T15:40:37.387Z,47.40
2022-08-23T15:43:06.630Z,47.70
2022-08-23T15:45:35.673Z,48.50
2022-08-23T15:48:08.081Z,48.80
2022-08-23T15:50:38.780Z,49.20
2022-08-23T15:53:06.929Z,48.80
2022-08-23T15:55:35.005Z,48.30
2022-08-23T15:58:03.027Z,48.00
2022-08-23T16:00:31.927Z,48.10
2022-08-23T16:03:18.852Z,47.80
2022-08-23T16:05:53.643Z,47.60
2022-08-23T16:08:25.768Z,48.30
2022-08-23T16:10:54.255Z,48.70
2022-08-23T16:13:22.574Z,47.60
2022-08-23T16:15:53.004Z,48.00
2022-08-23T16:18:21.197Z,47.70
2022-08-23T16:20:54.409Z,48.30
2022-08-23T16:23:23.162Z,48.40
2022-08-23T16:25:52.412Z,47.60
2022-08-23T16:28:20.548Z,48.20
2022-08-23T16:30:49.079Z,48.60
2022-08-23T16:33:17.258Z,48.60
2022-08-23T16:35:45.411Z,48.60
2022-08-23T16:38:15.110Z,48.20
2022-08-23T16:40:43.335Z,48.60
2022-08-23T16:43:14.894Z,48.10
2022-08-23T16:45:42.918Z,49.00
2022-08-23T16:48:14.662Z,49.10
2022-08-23T16:50:43.900Z,49.00
2022-08-23T16:53:12.198Z,48.90
2022-08-23T16:55:41.578Z,49.60
2022-08-23T16:58:09.814Z,49.60
2022-08-23T17:00:38.958Z,49.40
2022-08-23T17:03:07.924Z,49.90
2022-08-23T17:05:36.136Z,49.80
2022-08-23T17:08:07.490Z,50.00
2022-08-23T17:10:35.713Z,50.60
2022-08-23T17:13:06.036Z,50.20
2022-08-23T17:15:36.454Z,49.90
2022-08-23T17:18:07.855Z,50.10
2022-08-23T17:20:39.149Z,50.10
2022-08-23T17:23:08.615Z,50.60
2022-08-23T17:25:37.457Z,50.40
2022-08-23T17:28:07.138Z,51.20
2022-08-23T17:30:35.568Z,50.70
2022-08-23T17:33:05.652Z,50.90
2022-08-23T17:35:34.746Z,51.20
2022-08-23T17:38:04.212Z,51.80
2022-08-23T17:40:34.541Z,51.60
2022-08-23T17:43:03.562Z,52.20
2022-08-23T17:45:38.458Z,52.70
2022-08-23T17:48:08.876Z,52.90
2022-08-23T17:50:37.978Z,52.70
2022-08-23T17:53:06.698Z,53.00
2022-08-23T17:55:36.673Z,53.20
2022-08-23T17:58:04.993Z,53.60
2022-08-23T18:00:36.146Z,53.90
2022-08-23T18:03:05.768Z,53.70
2022-08-23T18:05:34.979Z,53.90
2022-08-23T18:08:04.800Z,54.10
2022-08-23T18:10:33.000Z,54.00
2022-08-23T18:13:01.339Z,54.00
2022-08-23T18:15:31.261Z,54.10
2022-08-23T18:18:02.406Z,54.20
2022-08-23T18:20:31.551Z,54.50
2022-08-23T18:23:01.089Z,54.20
2022-08-23T18:25:29.662Z,54.20
2022-08-23T18:28:06.392Z,54.30
2022-08-23T18:30:39.390Z,53.70
2022-08-23T18:33:12.500Z,53.70
2022-08-23T18:35:41.101Z,53.70
2022-08-23T18:38:09.383Z,53.80
2022-08-23T18:40:45.244Z,53.80
2022-08-23T18:43:16.781Z,54.00
2022-08-23T18:45:46.069Z,53.90
2022-08-23T18:48:16.192Z,54.20
2022-08-23T18:50:44.950Z,54.30
2022-08-23T18:53:15.664Z,54.70
2022-08-23T18:55:47.146Z,54.70
2022-08-23T18:58:15.198Z,55.10
2022-08-23T19:00:43.372Z,55.10
2022-08-23T19:03:12.352Z,55.60
2022-08-23T19:05:43.143Z,55.10
2022-08-23T19:08:12.158Z,54.80
2022-08-23T19:10:41.513Z,54.60
2022-08-23T19:13:10.072Z,54.20
2022-08-23T19:15:40.281Z,54.50
2022-08-23T19:18:08.631Z,54.40
2022-08-23T19:20:38.207Z,54.90
2022-08-23T19:23:08.711Z,54.80
2022-08-23T19:25:38.521Z,55.00
2022-08-23T19:28:07.446Z,55.20
2022-08-23T19:30:36.774Z,55.50
2022-08-23T19:33:05.462Z,56.20
2022-08-23T19:35:35.861Z,56.50
2022-08-23T19:38:03.896Z,55.90
2022-08-23T19:40:34.243Z,56.20
2022-08-23T19:43:02.564Z,56.20
2022-08-23T19:45:32.354Z,56.30
2022-08-23T19:48:02.880Z,56.70
2022-08-23T19:50:31.050Z,56.40
2022-08-23T19:52:59.254Z,56.50
2022-08-23T19:55:28.627Z,56.30
2022-08-23T19:57:58.247Z,56.60
2022-08-23T20:00:27.733Z,57.30
2022-08-23T20:02:56.123Z,57.00
2022-08-23T20:05:24.258Z,56.80
2022-08-23T20:07:52.350Z,56.60
2022-08-23T20:10:20.858Z,56.60
2022-08-23T20:12:49.029Z,56.90
2022-08-23T20:15:18.567Z,56.80
2022-08-23T20:17:46.689Z,56.40
2022-08-23T20:20:15.305Z,55.90
2022-08-23T20:23:01.248Z,55.70
2022-08-23T20:25:30.598Z,56.10
2022-08-23T20:27:59.256Z,56.30
2022-08-23T20:30:28.692Z,57.00
2022-08-23T20:32:56.855Z,56.80
2022-08-23T20:35:25.059Z,56.50
2022-08-23T20:37:53.151Z,56.60
2022-08-23T20:40:23.040Z,56.70
2022-08-23T20:42:51.451Z,57.30
2022-08-23T20:45:20.085Z,57.20
2022-08-23T20:47:49.863Z,57.40
2022-08-23T20:50:18.116Z,58.10
2022-08-23T20:52:46.934Z,57.90
2022-08-23T20:55:16.535Z,57.40
2022-08-23T20:57:44.555Z,57.40
2022-08-23T21:00:15.806Z,57.00
2022-08-23T21:02:44.321Z,56.90
2022-08-23T21:05:13.811Z,57.10
2022-08-23T21:07:41.974Z,57.20
2022-08-23T21:10:10.786Z,56.60
2022-08-23T21:12:41.050Z,56.30
2022-08-23T21:15:11.171Z,55.90
2022-08-23T21:17:39.332Z,56.70
2022-08-23T21:20:08.256Z,57.70
2022-08-23T21:22:37.716Z,58.40
2022-08-23T21:25:06.612Z,59.00
2022-08-23T21:27:34.916Z,59.70
2022-08-23T21:30:03.435Z,59.70
2022-08-23T21:32:33.193Z,60.00
2022-08-23T21:35:02.055Z,60.50
2022-08-23T21:37:31.125Z,61.10
2022-08-23T21:40:01.387Z,60.10
2022-08-23T21:42:30.531Z,59.90
2022-08-23T21:44:58.676Z,60.80
2022-08-23T21:47:26.728Z,60.60
2022-08-23T21:49:54.778Z,60.40
2022-08-23T21:52:22.934Z,59.70
2022-08-23T21:54:51.092Z,59.40
2022-08-23T21:57:20.490Z,58.60
2022-08-23T21:59:48.650Z,58.20
2022-08-23T22:02:17.460Z,58.50
2022-08-23T22:04:47.432Z,58.30
2022-08-23T22:07:15.471Z,58.00
2022-08-23T22:09:43.542Z,57.70
2022-08-23T22:12:11.520Z,57.80
2022-08-23T22:14:41.327Z,57.70
2022-08-23T22:17:09.307Z,57.00
2022-08-23T22:19:37.280Z,57.00
2022-08-23T22:22:06.050Z,56.40
2022-08-23T22:24:34.365Z,55.80
2022-08-23T22:27:02.458Z,55.40
2022-08-23T22:29:30.584Z,55.40
2022-08-23T22:32:02.001Z,55.50
2022-08-23T22:34:30.475Z,56.90
2022-08-23T22:36:58.463Z,57.20
2022-08-23T22:39:26.519Z,56.80
2022-08-23T22:41:55.378Z,56.60
2022-08-23T22:44:23.385Z,57.30
2022-08-23T22:46:51.508Z,57.70
2022-08-23T22:49:20.841Z,58.10
2022-08-23T22:51:55.022Z,58.30
2022-08-23T22:54:24.629Z,58.50
2022-08-23T22:56:54.795Z,58.40
2022-08-23T22:59:27.395Z,58.30
2022-08-23T23:01:58.438Z,58.20
2022-08-23T23:04:29.344Z,58.10
2022-08-23T23:06:58.378Z,58.20
2022-08-23T23:09:27.524Z,58.70
2022-08-23T23:11:56.327Z,58.30
2022-08-23T23:14:24.586Z,58.10
2022-08-23T23:16:53.297Z,57.80
2022-08-23T23:19:40.957Z,57.70
2022-08-23T23:22:11.148Z,57.50
2022-08-23T23:24:41.087Z,57.70
2022-08-23T23:27:10.448Z,58.60
2022-08-23T23:29:38.666Z,59.40
2022-08-23T23:32:07.187Z,59.20
2022-08-23T23:34:36.428Z,58.70
2022-08-23T23:37:05.365Z,57.80
2022-08-23T23:39:35.085Z,57.40
2022-08-23T23:42:03.322Z,57.70
2022-08-23T23:44:32.119Z,56.80
2022-08-23T23:47:01.645Z,56.40
2022-08-23T23:49:33.008Z,56.70
2022-08-23T23:52:02.868Z,56.50
2022-08-23T23:54:31.383Z,56.50
2022-08-23T23:57:00.826Z,57.00
2022-08-23T23:59:28.993Z,56.70
